Time;durP1;ratioP1;P1;durP2;ratioP2;P2;SDS_P1;SDS_P2;PMS_P1;PMS_P2;Temp;Humidity;BMP_temperature;BMP_pressure;BME280_temperature;BME280_humidity;BME280_pressure;Samples;Min_cycle;Max_cycle;Signal;HPM_P1;HPM_P2
2021/12/01 00:00:41;;;;;;;;;;;9.40;99.90;;;;;;5025406;28;20054;-74
2021/12/01 00:03:07;;;;;;;19.35;7.28;;;10.50;99.90;;;;;;5043561;28;19920;-73
2021/12/01 00:05:33;;;;;;;;;;;9.30;99.90;;;;;;5041645;28;20401;-74
2021/12/01 00:08:05;;;;;;;15.65;7.55;;;9.40;99.90;;;;;;5023832;28;19987;-74
2021/12/01 00:10:54;;;;;;;18.27;7.45;;;9.40;99.90;;;;;;5037907;28;20050;-74
2021/12/01 00:13:53;;;;;;;16.20;7.97;;;9.40;99.90;;;;;;5042973;28;20512;-74
2021/12/01 00:16:19;;;;;;;17.00;7.40;;;10.00;99.90;;;;;;5042650;28;20060;-74
2021/12/01 00:18:44;;;;;;;;;;;9.40;99.90;;;;;;5040561;28;20041;-74
2021/12/01 00:21:10;;;;;;;14.90;7.00;;;9.50;99.90;;;;;;5024803;28;20381;-74
2021/12/01 00:23:35;;;;;;;;;;;9.40;99.90;;;;;;5043346;28;20056;-74
2021/12/01 00:26:02;;;;;;;11.75;5.30;;;9.50;99.90;;;;;;5041139;28;20269;-74
2021/12/01 00:28:28;;;;;;;15.05;5.80;;;9.60;99.90;;;;;;5025835;28;20082;-74
2021/12/01 00:30:53;;;;;;;;;;;9.30;99.90;;;;;;5023657;28;20437;-74
2021/12/01 00:33:22;;;;;;;13.82;5.43;;;9.50;99.90;;;;;;5035659;28;19955;-74
2021/12/01 00:35:56;;;;;;;20.10;5.75;;;9.60;99.90;;;;;;5022501;28;20072;-74
2021/12/01 00:38:28;;;;;;;14.98;5.97;;;9.60;99.90;;;;;;5036195;28;20045;-75
2021/12/01 00:40:54;;;;;;;11.73;5.28;;;9.60;99.90;;;;;;5043406;28;20049;-74
2021/12/01 00:43:20;;;;;;;;;;;9.60;99.90;;;;;;5022590;28;20096;-74
2021/12/01 00:45:57;;;;;;;14.50;5.03;;;9.60;99.90;;;;;;5026009;28;20364;-74
2021/12/01 00:48:23;;;;;;;14.15;5.80;;;10.00;99.90;;;;;;5022279;28;20143;-73
2021/12/01 00:50:50;;;;;;;14.13;5.35;;;9.70;99.90;;;;;;5025701;28;20442;-74
2021/12/01 00:53:15;;;;;;;15.98;5.45;;;9.70;99.90;;;;;;5022106;28;20080;-74
2021/12/01 00:55:42;;;;;;;;;;;9.70;99.90;;;;;;5043285;28;20048;-74
2021/12/01 00:58:11;;;;;;;14.18;5.25;;;9.60;99.90;;;;;;5023966;28;19983;-74
2021/12/01 01:00:38;;;;;;;13.02;4.97;;;9.60;99.90;;;;;;5024370;28;20106;-74
2021/12/01 01:03:04;;;;;;;13.43;4.55;;;9.60;99.90;;;;;;5041062;28;20048;-75
2021/12/01 01:05:30;;;;;;;;;;;9.70;99.90;;;;;;5024638;28;20374;-75
2021/12/01 01:07:56;;;;;;;18.98;5.10;;;9.60;99.90;;;;;;5040773;28;19921;-75
2021/12/01 01:18:35;;;;;;;11.23;4.60;;;9.50;99.90;;;;;;5022799;28;20057;-75
2021/12/01 01:21:01;;;;;;;12.15;4.63;;;9.50;99.90;;;;;;5039007;28;20492;-75
2021/12/01 01:23:37;;;;;;;10.13;3.45;;;9.50;99.90;;;;;;5022985;28;20045;-74
2021/12/01 01:26:08;;;;;;;9.88;3.60;;;9.10;99.90;;;;;;5040690;28;20044;-75
2021/12/01 01:28:40;;;;;;;8.90;3.10;;;9.50;99.90;;;;;;5037584;28;20052;-75
2021/12/01 01:31:30;;;;;;;8.65;2.72;;;9.60;99.90;;;;;;5024627;28;20045;-75
2021/12/01 01:33:59;;;;;;;10.00;3.55;;;9.50;99.90;;;;;;5043675;28;20078;-75
2021/12/01 01:36:26;;;;;;;;;;;9.60;99.90;;;;;;5025082;28;20072;-75
2021/12/01 01:38:56;;;;;;;9.32;2.72;;;9.60;99.90;;;;;;5024138;28;20360;-75
2021/12/01 01:41:22;;;;;;;16.25;3.03;;;9.50;99.90;;;;;;5040185;28;20113;-75
2021/12/01 01:43:50;;;;;;;10.30;2.95;;;9.60;99.90;;;;;;5020979;28;20048;-75
2021/12/01 01:46:15;;;;;;;10.00;2.85;;;9.60;99.90;;;;;;5025110;28;20033;-75
2021/12/01 01:48:53;;;;;;;;;;;9.80;99.90;;;;;;5022663;28;20050;-75
2021/12/01 01:51:24;;;;;;;12.43;3.40;;;10.10;99.90;;;;;;5024103;28;20008;-75
2021/12/01 01:53:55;;;;;;;9.00;2.65;;;9.80;99.90;;;;;;5027850;28;20441;-75
2021/12/01 01:56:21;;;;;;;12.25;2.33;;;9.70;99.90;;;;;;5026825;28;20037;-75
2021/12/01 01:58:47;;;;;;;;;;;9.70;99.90;;;;;;5045916;28;20401;-75
2021/12/01 02:01:28;;;;;;;12.68;2.55;;;9.70;99.90;;;;;;5043489;28;20015;-74
2021/12/01 02:03:54;;;;;;;11.32;2.15;;;9.70;99.90;;;;;;5026387;28;20071;-74
2021/12/01 02:06:23;;;;;;;;;;;9.80;99.90;;;;;;5042630;28;20049;-75
2021/12/01 02:09:06;;;;;;;13.18;2.50;;;9.70;99.90;;;;;;5067005;23;19921;-74
2021/12/01 02:11:46;;;;;;;8.27;2.33;;;9.70;99.90;;;;;;5011414;28;20091;-75
2021/12/01 02:14:12;;;;;;;9.65;2.20;;;8.90;99.90;;;;;;5022517;28;20468;-75
2021/12/01 02:16:38;;;;;;;;;;;9.70;99.90;;;;;;5024730;28;20069;-75
2021/12/01 02:19:13;;;;;;;11.15;2.22;;;9.80;99.90;;;;;;5028411;28;19916;-74
2021/12/01 02:21:42;;;;;;;7.88;2.72;;;9.80;99.90;;;;;;5039990;28;20072;-75
2021/12/01 02:24:11;;;;;;;10.60;2.50;;;9.60;99.90;;;;;;5028472;28;20075;-74
2021/12/01 02:26:46;;;;;;;6.72;1.95;;;9.70;99.90;;;;;;5024936;28;20037;-74
2021/12/01 02:29:17;;;;;;;9.63;1.80;;;9.80;99.90;;;;;;5027986;28;20041;-74
2021/12/01 02:31:47;;;;;;;8.82;2.00;;;9.80;99.90;;;;;;5024886;28;20059;-75
2021/12/01 02:34:18;;;;;;;7.97;2.08;;;9.70;99.90;;;;;;5025737;28;20053;-75
2021/12/01 02:36:47;;;;;;;4.32;1.27;;;9.60;99.90;;;;;;5044890;28;20114;-75
2021/12/01 02:39:15;;;;;;;10.55;2.00;;;9.60;99.90;;;;;;5043453;28;20037;-74
2021/12/01 02:41:49;;;;;;;9.52;2.17;;;9.60;99.90;;;;;;5045366;28;20037;-75
2021/12/01 02:44:21;;;;;;;8.20;1.73;;;9.60;99.90;;;;;;5027068;28;20077;-75
2021/12/01 02:46:47;;;;;;;12.68;1.85;;;9.60;99.90;;;;;;5025270;28;20045;-74
2021/12/01 02:49:18;;;;;;;8.45;2.15;;;9.70;99.90;;;;;;5024855;28;20151;-75
2021/12/01 02:51:44;;;;;;;8.85;1.88;;;9.60;99.90;;;;;;5026344;28;20559;-74
2021/12/01 02:54:10;;;;;;;;;;;9.60;99.90;;;;;;5025657;28;20038;-75
2021/12/01 02:56:36;;;;;;;6.30;1.52;;;9.70;99.90;;;;;;5027475;28;20415;-75
2021/12/01 02:59:03;;;;;;;7.95;1.88;;;9.60;99.90;;;;;;5024909;28;20084;-74
2021/12/01 03:01:29;;;;;;;8.70;1.80;;;9.70;99.90;;;;;;5021758;28;20084;-74
2021/12/01 03:03:58;;;;;;;7.00;1.98;;;9.80;99.90;;;;;;5027706;28;20041;-74
2021/12/01 03:06:26;;;;;;;9.18;2.00;;;9.80;99.90;;;;;;5042629;28;20065;-74
2021/12/01 03:08:54;;;;;;;9.65;2.10;;;9.90;99.90;;;;;;5027872;28;20511;-74
2021/12/01 03:11:25;;;;;;;8.93;1.80;;;10.00;99.90;;;;;;5043316;28;20060;-74
2021/12/01 03:13:57;;;;;;;12.38;2.35;;;10.00;99.90;;;;;;5024185;28;20037;-74
2021/12/01 03:16:27;;;;;;;;;;;10.00;99.90;;;;;;5020270;28;20441;-74
2021/12/01 03:18:53;;;;;;;5.60;1.83;;;10.00;99.90;;;;;;5041097;28;20377;-74
2021/12/01 03:21:20;;;;;;;;;;;9.90;99.90;;;;;;5027622;28;20060;-75
2021/12/01 03:23:45;;;;;;;7.97;1.45;;;9.90;99.90;;;;;;5024853;28;19921;-74
2021/12/01 03:26:14;;;;;;;;;;;10.00;99.90;;;;;;5044299;28;20532;-75
2021/12/01 03:28:39;;;;;;;10.75;2.20;;;9.90;99.90;;;;;;5043129;28;20284;-75
2021/12/01 03:31:05;;;;;;;;;;;9.90;99.90;;;;;;5024850;28;20049;-74
2021/12/01 03:33:31;;;;;;;9.52;2.03;;;9.90;99.90;;;;;;5042431;28;19956;-74
2021/12/01 03:35:56;;;;;;;;;;;10.00;99.90;;;;;;5027115;28;20439;-74
2021/12/01 03:38:26;;;;;;;12.73;1.85;;;10.60;99.90;;;;;;5042193;28;20365;-75
2021/12/01 03:40:52;;;;;;;8.68;2.00;;;9.90;99.90;;;;;;5020511;28;20034;-74
2021/12/01 03:43:18;;;;;;;;;;;9.90;99.90;;;;;;5044964;28;20539;-75
2021/12/01 03:45:45;;;;;;;12.77;2.30;;;9.50;99.90;;;;;;5021281;28;19925;-75
2021/12/01 03:48:11;;;;;;;12.52;2.00;;;9.90;99.90;;;;;;5040064;28;20080;-75
2021/12/01 03:50:38;;;;;;;11.02;2.05;;;9.90;99.90;;;;;;5024417;28;20137;-75
2021/12/01 03:53:08;;;;;;;10.13;2.13;;;9.90;99.90;;;;;;5025753;28;20045;-75
2021/12/01 03:55:35;;;;;;;13.30;2.33;;;9.80;99.90;;;;;;5025312;28;20536;-74
2021/12/01 03:58:02;;;;;;;11.75;2.25;;;9.80;99.90;;;;;;5042763;28;20120;-75
2021/12/01 04:00:43;;;;;;;12.90;2.65;;;9.80;99.90;;;;;;5041124;28;20076;-74
2021/12/01 04:03:15;;;;;;;13.05;2.65;;;9.80;99.90;;;;;;5041594;28;20124;-74
2021/12/01 04:05:41;;;;;;;15.13;2.80;;;8.80;99.90;;;;;;5043734;28;20116;-74
2021/12/01 04:08:07;;;;;;;;;;;11.10;99.90;;;;;;5024737;28;20155;-75
2021/12/01 04:10:32;;;;;;;16.10;3.30;;;9.60;99.90;;;;;;5039966;28;19931;-74
2021/12/01 04:12:58;;;;;;;;;;;9.50;99.90;;;;;;5042655;28;20073;-74
2021/12/01 04:15:24;;;;;;;17.02;3.10;;;9.60;99.90;;;;;;5025668;28;20376;-74
2021/12/01 04:17:49;;;;;;;;;;;9.50;99.90;;;;;;5023655;28;20128;-74
2021/12/01 04:20:16;;;;;;;15.13;3.00;;;9.50;99.90;;;;;;5023891;28;19920;-74
2021/12/01 04:22:44;;;;;;;15.45;2.50;;;9.60;99.90;;;;;;5018829;28;20054;-74
2021/12/01 04:25:10;;;;;;;12.20;2.65;;;9.60;99.90;;;;;;5035146;28;20049;-74
2021/12/01 04:27:36;;;;;;;11.27;2.47;;;9.60;99.90;;;;;;5020632;28;20129;-74
2021/12/01 04:30:04;;;;;;;12.93;2.97;;;9.60;99.90;;;;;;5043409;28;20041;-74
2021/12/01 04:32:30;;;;;;;16.60;2.55;;;9.70;99.90;;;;;;5023262;28;20123;-74
2021/12/01 04:34:57;;;;;;;;;;;9.60;99.90;;;;;;5023774;28;20128;-74
2021/12/01 04:37:23;;;;;;;;;;;9.60;99.90;;;;;;5023162;28;19925;-74
2021/12/01 04:39:48;;;;;;;11.23;2.50;;;9.60;99.90;;;;;;5022698;28;19924;-74
2021/12/01 04:42:14;;;;;;;;;;;9.60;99.90;;;;;;5038920;28;20057;-74
2021/12/01 04:44:40;;;;;;;7.38;1.73;;;9.60;99.90;;;;;;5026451;28;19921;-74
2021/12/01 04:47:10;;;;;;;;;;;9.60;99.90;;;;;;5040859;28;20569;-74
2021/12/01 04:49:39;;;;;;;8.82;2.00;;;10.90;99.90;;;;;;5026018;28;19928;-74
2021/12/01 04:52:08;;;;;;;6.97;1.90;;;9.80;99.90;;;;;;5038545;28;20064;-74
2021/12/01 04:54:34;;;;;;;11.02;2.03;;;9.80;99.90;;;;;;5025328;28;20033;-74
2021/12/01 04:57:01;;;;;;;;;;;9.70;99.90;;;;;;5024186;28;20040;-74
2021/12/01 04:59:26;;;;;;;10.80;2.10;;;9.70;99.90;;;;;;5024532;28;19975;-74
2021/12/01 05:01:54;;;;;;;;;;;9.70;99.90;;;;;;5021139;28;20524;-74
2021/12/01 05:04:21;;;;;;;5.93;1.63;;;9.70;99.90;;;;;;5023691;28;19927;-74
2021/12/01 05:06:50;;;;;;;5.93;1.80;;;9.60;99.90;;;;;;5023279;28;20049;-74
2021/12/01 05:09:16;;;;;;;4.88;1.40;;;9.60;99.90;;;;;;5020439;28;20597;-74
2021/12/01 05:11:43;;;;;;;7.22;1.98;;;9.70;99.90;;;;;;5043035;28;20384;-74
2021/12/01 05:14:09;;;;;;;5.90;1.50;;;9.70;99.90;;;;;;5021617;28;20588;-74
2021/12/01 05:16:36;;;;;;;;;;;9.70;99.90;;;;;;5026319;28;20052;-74
2021/12/01 05:19:05;;;;;;;2.50;1.00;;;9.80;99.90;;;;;;5018155;28;20296;-74
2021/12/01 05:21:31;;;;;;;2.45;1.35;;;11.10;99.90;;;;;;5024556;28;20044;-74
2021/12/01 05:23:56;;;;;;;;;;;9.60;99.90;;;;;;5038838;28;20053;-74
2021/12/01 05:26:22;;;;;;;2.50;1.10;;;9.70;99.90;;;;;;5023872;28;19952;-74
2021/12/01 05:28:47;;;;;;;;;;;9.60;99.90;;;;;;5041919;28;20036;-75
2021/12/01 05:31:13;;;;;;;2.28;1.10;;;9.50;99.90;;;;;;5023300;28;19921;-74
2021/12/01 05:33:40;;;;;;;;;;;9.60;99.90;;;;;;5025125;28;20052;-74
2021/12/01 05:36:06;;;;;;;3.35;1.00;;;9.50;99.90;;;;;;5039855;28;19921;-74
2021/12/01 05:38:32;;;;;;;;;;;9.50;99.90;;;;;;5043039;28;20045;-74
2021/12/01 05:40:57;;;;;;;0.85;0.50;;;9.50;99.90;;;;;;5037442;28;19976;-74
2021/12/01 05:43:23;;;;;;;;;;;9.40;99.90;;;;;;5019352;28;20057;-74
2021/12/01 05:45:49;;;;;;;3.25;1.10;;;9.50;99.90;;;;;;5036782;28;20377;-74
2021/12/01 05:48:15;;;;;;;;;;;9.50;99.90;;;;;;5018426;28;20038;-74
2021/12/01 05:50:42;;;;;;;2.83;1.00;;;9.40;99.90;;;;;;5033710;28;20305;-74
2021/12/01 05:53:09;;;;;;;2.95;1.30;;;9.40;99.90;;;;;;5040373;28;20396;-74
2021/12/01 05:55:35;;;;;;;1.90;0.82;;;9.30;99.90;;;;;;5038630;28;20068;-74
2021/12/01 05:58:04;;;;;;;1.90;0.80;;;9.40;99.90;;;;;;5042443;28;20476;-74
2021/12/01 06:00:30;;;;;;;2.15;0.65;;;9.30;99.90;;;;;;5023438;28;20489;-74
2021/12/01 06:02:56;;;;;;;;;;;9.20;99.90;;;;;;5023265;28;20493;-74
2021/12/01 06:05:24;;;;;;;2.15;1.10;;;9.20;99.90;;;;;;5022457;28;19929;-74
2021/12/01 06:07:59;;;;;;;5.38;1.20;;;9.20;99.90;;;;;;5041688;28;20496;-74
2021/12/01 06:10:25;;;;;;;3.92;1.60;;;10.50;99.90;;;;;;5021829;28;20092;-74
2021/12/01 06:12:52;;;;;;;;;;;9.20;99.90;;;;;;5025728;28;20128;-75
2021/12/01 06:15:18;;;;;;;4.07;1.00;;;9.30;99.90;;;;;;5040357;28;19929;-74
2021/12/01 06:17:46;;;;;;;;;;;9.20;99.90;;;;;;5024776;28;20033;-74
2021/12/01 06:20:13;;;;;;;4.10;1.00;;;9.20;99.90;;;;;;5021978;28;20332;-74
2021/12/01 06:22:40;;;;;;;4.07;0.98;;;9.20;99.90;;;;;;5040611;28;20097;-75
2021/12/01 06:25:06;;;;;;;2.55;1.08;;;9.20;99.90;;;;;;5016387;28;20537;-74
2021/12/01 06:27:32;;;;;;;2.72;1.30;;;9.20;99.90;;;;;;5023975;28;20041;-74
2021/12/01 06:29:57;;;;;;;;;;;9.20;99.90;;;;;;5022422;28;20401;-74
2021/12/01 06:32:26;;;;;;;5.20;1.40;;;9.30;99.90;;;;;;5022575;28;19921;-74
2021/12/01 06:34:51;;;;;;;;;;;9.30;99.90;;;;;;5023848;28;20411;-75
2021/12/01 06:37:18;;;;;;;6.13;1.30;;;9.30;99.90;;;;;;5024696;28;20284;-74
2021/12/01 06:39:45;;;;;;;4.40;1.85;;;9.30;99.90;;;;;;5043662;28;20072;-74
2021/12/01 06:42:14;;;;;;;9.35;1.48;;;9.30;99.90;;;;;;5026517;28;20042;-74
2021/12/01 06:44:43;;;;;;;3.25;1.00;;;9.30;99.90;;;;;;5017585;28;20037;-73
2021/12/01 06:47:08;;;;;;;7.72;1.50;;;9.40;99.90;;;;;;5026264;28;20045;-74
2021/12/01 06:49:37;;;;;;;7.93;1.60;;;9.30;99.90;;;;;;5040825;28;20045;-74
2021/12/01 06:52:03;;;;;;;;;;;9.40;99.90;;;;;;5025923;28;20044;-74
2021/12/01 06:54:28;;;;;;;10.07;1.70;;;9.40;99.90;;;;;;5016400;28;20067;-74
2021/12/01 06:56:54;;;;;;;;;;;9.40;99.90;;;;;;5037809;28;20029;-74
2021/12/01 07:01:48;;;;;;;5.85;1.50;;;9.50;99.90;;;;;;5020153;28;20053;-74
2021/12/01 07:04:15;;;;;;;;;;;9.40;99.90;;;;;;5007741;28;20041;-74
2021/12/01 07:06:41;;;;;;;;;;;9.30;99.90;;;;;;5005139;28;19922;-74
2021/12/01 07:09:07;;;;;;;11.75;1.98;;;9.30;99.90;;;;;;5005773;28;19921;-74
2021/12/01 07:11:32;;;;;;;;;;;9.40;99.90;;;;;;5005117;28;20054;-74
2021/12/01 07:13:58;;;;;;;12.23;2.58;;;9.40;99.90;;;;;;5006290;28;20004;-74
2021/12/01 07:16:23;;;;;;;;;;;9.40;99.90;;;;;;5023327;28;20045;-76
2021/12/01 07:18:52;;;;;;;10.20;1.73;;;9.40;99.90;;;;;;5000571;28;19992;-74
2021/12/01 07:21:18;;;;;;;7.70;1.60;;;9.40;99.90;;;;;;4996345;28;20179;-75
2021/12/01 07:23:43;;;;;;;;;;;9.60;99.90;;;;;;5011280;28;20494;-74
2021/12/01 07:26:09;;;;;;;7.10;1.75;;;9.50;99.90;;;;;;5004418;28;19968;-73
2021/12/01 07:28:37;;;;;;;;;;;9.50;99.90;;;;;;5007238;28;20811;-75
2021/12/01 07:31:03;;;;;;;11.50;1.95;;;9.50;99.90;;;;;;5005015;28;19921;-75
2021/12/01 07:33:29;;;;;;;;;;;9.40;99.90;;;;;;5003465;28;20061;-76
2021/12/01 07:35:55;;;;;;;7.97;2.90;;;9.40;99.90;;;;;;5007116;28;19949;-76
2021/12/01 07:38:20;;;;;;;;;;;9.40;99.90;;;;;;5003853;28;20493;-74
2021/12/01 07:40:46;;;;;;;10.57;1.92;;;9.40;99.90;;;;;;5021998;28;19932;-76
2021/12/01 07:43:17;;;;;;;;;;;9.50;99.90;;;;;;5003064;28;20084;-76
2021/12/01 07:45:44;;;;;;;16.67;2.22;;;10.50;99.90;;;;;;5008854;28;19968;-75
2021/12/01 07:48:14;;;;;;;10.57;2.22;;;9.40;99.90;;;;;;4999947;28;20130;-74
2021/12/01 07:50:40;;;;;;;13.90;2.63;;;9.20;99.90;;;;;;5022110;28;20061;-74
2021/12/01 07:53:09;;;;;;;9.55;2.08;;;9.20;99.90;;;;;;5003838;28;20041;-76
2021/12/01 07:55:35;;;;;;;13.07;3.45;;;9.00;99.90;;;;;;5007500;28;20049;-74
2021/12/01 07:58:09;;;;;;;;;;;8.90;99.90;;;;;;5015686;28;20037;-73
2021/12/01 08:00:59;;;;;;;10.02;2.30;;;9.00;99.90;;;;;;4942014;29;20409;-76
2021/12/01 08:03:28;;;;;;;11.82;3.08;;;8.60;99.90;;;;;;4925574;29;20057;-75
2021/12/01 08:05:54;;;;;;;14.43;2.75;;;9.50;99.90;;;;;;4981712;28;20057;-75
2021/12/01 08:08:19;;;;;;;;;;;8.70;99.90;;;;;;5023030;28;20061;-73
2021/12/01 08:10:46;;;;;;;9.05;2.65;;;8.50;99.90;;;;;;5001968;28;19925;-74
2021/12/01 08:13:13;;;;;;;13.38;3.05;;;8.50;99.90;;;;;;5005476;28;20080;-72
2021/12/01 08:15:39;;;;;;;10.45;2.22;;;8.50;99.90;;;;;;5007446;28;20049;-73
2021/12/01 08:18:05;;;;;;;11.38;2.15;;;8.60;99.90;;;;;;5018020;28;20046;-73
2021/12/01 08:20:31;;;;;;;;;;;8.60;99.90;;;;;;5021077;28;20041;-72
2021/12/01 08:23:22;;;;;;;10.00;1.95;;;9.20;99.90;;;;;;5021493;28;19925;-73
2021/12/01 08:25:47;;;;;;;11.80;2.13;;;8.10;99.90;;;;;;5019609;28;20099;-73
2021/12/01 08:28:48;;;;;;;;;;;9.30;99.90;;;;;;5020470;28;20037;-72
2021/12/01 08:31:16;;;;;;;9.60;2.33;;;9.50;99.90;;;;;;5009337;28;19922;-72
2021/12/01 08:33:47;;;;;;;13.15;2.05;;;9.70;99.90;;;;;;5002567;28;20042;-73
2021/12/01 08:36:28;;;;;;;12.65;2.10;;;9.10;99.90;;;;;;5021932;28;20053;-75
2021/12/01 08:38:56;;;;;;;14.32;2.58;;;8.90;99.90;;;;;;5024025;28;20493;-78
2021/12/01 08:41:25;;;;;;;10.32;2.60;;;9.20;99.90;;;;;;4998239;28;20041;-76
2021/12/01 08:44:02;;;;;;;11.57;1.88;;;8.70;99.90;;;;;;5001900;28;20509;-76
2021/12/01 08:46:28;;;;;;;11.05;2.03;;;8.70;99.90;;;;;;4998071;28;20072;-73
2021/12/01 08:49:06;;;;;;;;;;;9.10;99.90;;;;;;5020108;28;20037;-74
2021/12/01 08:51:35;;;;;;;6.75;1.80;;;8.60;99.90;;;;;;5018086;28;20376;-72
2021/12/01 08:54:01;;;;;;;14.52;2.63;;;8.50;99.90;;;;;;5000234;28;20049;-72
2021/12/01 08:56:27;;;;;;;;;;;8.50;99.90;;;;;;5020416;28;20047;-72
2021/12/01 08:58:55;;;;;;;11.93;2.50;;;8.50;99.90;;;;;;5018418;28;19921;-74
2021/12/01 09:01:21;;;;;;;;;;;8.50;99.90;;;;;;5025198;28;20072;-73
2021/12/01 09:03:49;;;;;;;10.85;2.40;;;8.50;99.90;;;;;;5024329;28;20431;-74
2021/12/01 09:06:15;;;;;;;8.95;1.67;;;9.00;99.90;;;;;;5003314;28;20081;-75
2021/12/01 09:08:41;;;;;;;8.63;1.90;;;8.50;99.90;;;;;;5001945;28;20125;-72
2021/12/01 09:11:07;;;;;;;;;;;8.50;99.90;;;;;;5006294;28;20129;-73
2021/12/01 09:13:35;;;;;;;11.30;2.08;;;8.50;99.90;;;;;;5004550;28;19925;-75
2021/12/01 09:21:36;;;;;;;8.75;1.80;;;8.60;99.90;;;;;;5504938;22;20062;-75
2021/12/01 09:24:27;;;;;;;10.35;1.70;;;8.60;99.90;;;;;;5000932;28;20046;-73
2021/12/01 09:26:53;;;;;;;14.35;2.10;;;9.50;99.90;;;;;;5019570;28;20034;-74
2021/12/01 09:29:19;;;;;;;;;;;8.60;99.90;;;;;;5004826;28;20504;-73
2021/12/01 09:31:44;;;;;;;10.57;2.17;;;8.60;99.90;;;;;;5004252;28;20289;-72
2021/12/01 09:34:10;;;;;;;;;;;8.70;99.90;;;;;;5001742;28;20409;-71
2021/12/01 09:36:35;;;;;;;9.93;1.75;;;8.60;99.90;;;;;;5003503;28;19933;-71
2021/12/01 09:39:01;;;;;;;;;;;8.60;99.90;;;;;;5005166;28;20050;-72
2021/12/01 09:41:29;;;;;;;12.05;2.55;;;8.70;99.90;;;;;;4991469;28;20321;-72
2021/12/01 09:43:57;;;;;;;13.38;2.50;;;8.80;99.90;;;;;;5018945;28;20052;-72
2021/12/01 09:46:23;;;;;;;11.80;3.35;;;8.90;99.90;;;;;;5004168;28;20046;-73
2021/12/01 09:48:49;;;;;;;8.45;2.38;;;8.90;99.90;;;;;;5006003;28;20402;-73
2021/12/01 09:51:16;;;;;;;;;;;9.00;99.90;;;;;;5003614;28;20042;-75
2021/12/01 09:53:44;;;;;;;11.77;2.30;;;9.00;99.90;;;;;;5005658;28;19929;-75
2021/12/01 09:56:10;;;;;;;6.97;1.77;;;9.10;99.90;;;;;;5004963;28;20045;-73
2021/12/01 09:58:36;;;;;;;;;;;9.10;99.90;;;;;;5006368;28;20049;-72
2021/12/01 10:01:06;;;;;;;10.00;1.48;;;9.00;99.90;;;;;;5004866;28;19921;-72
2021/12/01 10:03:31;;;;;;;7.45;1.95;;;8.90;99.90;;;;;;5020531;28;20053;-71
2021/12/01 10:06:04;;;;;;;;;;;8.90;99.90;;;;;;5005605;28;20389;-71
2021/12/01 10:08:50;;;;;;;9.18;1.30;;;8.80;99.90;;;;;;5003953;28;19948;-72
2021/12/01 10:11:18;;;;;;;8.13;1.35;;;8.80;99.90;;;;;;4993329;28;20053;-72
2021/12/01 10:14:14;;;;;;;10.15;2.08;;;9.20;99.90;;;;;;5001446;28;20401;-72
2021/12/01 10:16:42;;;;;;;12.52;2.30;;;9.30;99.90;;;;;;5008091;28;20077;-73
2021/12/01 10:19:12;;;;;;;14.88;2.30;;;9.20;99.90;;;;;;5022509;28;20053;-75
2021/12/01 10:21:42;;;;;;;13.45;1.98;;;9.20;99.90;;;;;;5026269;28;20065;-74
2021/12/01 10:24:16;;;;;;;10.40;2.30;;;9.00;99.90;;;;;;5003071;28;20050;-75
2021/12/01 10:26:49;;;;;;;13.13;2.70;;;9.10;99.90;;;;;;5001241;28;20040;-73
2021/12/01 10:29:21;;;;;;;13.00;2.53;;;10.00;99.90;;;;;;5003172;28;20112;-74
2021/12/01 10:31:55;;;;;;;11.25;2.20;;;9.30;99.90;;;;;;5006545;28;20048;-73
2021/12/01 10:34:32;;;;;;;15.52;2.40;;;9.50;99.90;;;;;;5004986;28;20082;-72
2021/12/01 10:37:30;;;;;;;17.25;2.88;;;9.90;99.90;;;;;;5000052;28;20405;-74
2021/12/01 10:40:24;;;;;;;8.32;1.80;;;10.50;99.90;;;;;;5005286;28;20533;-73
2021/12/01 10:42:54;;;;;;;11.05;2.60;;;10.60;99.90;;;;;;5007550;28;20108;-74
2021/12/01 10:45:48;;;;;;;14.32;3.10;;;10.30;99.90;;;;;;5007544;28;20083;-73
2021/12/01 10:48:25;;;;;;;12.35;2.50;;;10.20;99.90;;;;;;4999565;28;20482;-74
2021/12/01 10:50:52;;;;;;;13.23;2.50;;;10.00;99.90;;;;;;5024298;28;20607;-72
2021/12/01 10:53:23;;;;;;;14.32;3.08;;;9.90;99.90;;;;;;5020904;28;20049;-73
2021/12/01 10:56:01;;;;;;;20.48;3.65;;;9.90;99.90;;;;;;5021943;28;20051;-74
2021/12/01 10:58:35;;;;;;;12.52;2.80;;;10.40;99.90;;;;;;5041538;28;20480;-73
2021/12/01 11:01:03;;;;;;;15.48;3.05;;;10.50;99.90;;;;;;5042416;28;20056;-73
2021/12/01 11:03:31;;;;;;;22.25;3.00;;;10.20;99.90;;;;;;5035163;28;20041;-73
2021/12/01 11:06:12;;;;;;;13.25;2.83;;;9.90;99.90;;;;;;5043053;28;20476;-72
2021/12/01 11:08:40;;;;;;;13.35;2.33;;;9.60;99.90;;;;;;5033763;28;20064;-73
2021/12/01 11:11:08;;;;;;;16.48;3.50;;;9.40;99.90;;;;;;5045689;28;20041;-74
2021/12/01 11:13:34;;;;;;;14.70;2.75;;;9.30;99.90;;;;;;5024306;28;20049;-72
2021/12/01 11:16:02;;;;;;;14.07;2.80;;;9.70;99.90;;;;;;5019243;28;20047;-75
2021/12/01 11:18:33;;;;;;;17.13;2.60;;;9.10;99.90;;;;;;5041571;28;20485;-74
2021/12/01 11:21:01;;;;;;;18.30;3.35;;;8.90;99.90;;;;;;5023307;28;20098;-71
2021/12/01 11:23:43;;;;;;;17.98;3.13;;;8.80;99.90;;;;;;5025283;28;20088;-74
2021/12/01 11:26:28;;;;;;;13.68;3.05;;;8.70;99.90;;;;;;5021454;28;20053;-73
2021/12/01 11:28:57;;;;;;;16.08;3.35;;;8.80;99.90;;;;;;5022190;28;20041;-75
2021/12/01 11:31:26;;;;;;;18.10;3.35;;;8.70;99.90;;;;;;5018605;28;20052;-74
2021/12/01 11:34:01;;;;;;;11.50;2.67;;;8.60;99.90;;;;;;5011071;28;20873;-76
2021/12/01 11:36:36;;;;;;;17.08;2.28;;;8.60;99.90;;;;;;5022959;28;20112;-76
2021/12/01 11:39:52;;;;;;;16.70;2.33;;;8.60;99.90;;;;;;5020649;28;20071;-74
2021/12/01 11:42:21;;;;;;;17.85;2.63;;;8.60;99.90;;;;;;5013004;28;20049;-73
2021/12/01 11:45:21;;;;;;;13.85;2.70;;;8.60;99.90;;;;;;5021926;28;20048;-75
2021/12/01 11:47:48;;;;;;;12.05;2.58;;;9.40;99.90;;;;;;5020132;28;20054;-74
2021/12/01 11:50:26;;;;;;;13.27;2.58;;;8.50;99.90;;;;;;5025587;28;20132;-72
2021/12/01 11:53:23;;;;;;;10.13;1.77;;;8.70;99.90;;;;;;5024020;28;20042;-73
2021/12/01 11:56:00;;;;;;;13.10;2.20;;;8.70;99.90;;;;;;5015887;28;20405;-77
2021/12/01 11:58:41;;;;;;;14.57;2.85;;;8.70;99.90;;;;;;5022922;28;20632;-79
2021/12/01 12:01:35;;;;;;;11.55;2.10;;;8.70;99.90;;;;;;5039370;28;20037;-80
2021/12/01 12:04:01;;;;;;;10.20;2.67;;;8.70;99.90;;;;;;5017235;28;20485;-80
2021/12/01 12:06:35;;;;;;;8.90;1.90;;;8.70;99.90;;;;;;5023157;28;20099;-75
2021/12/01 12:09:11;;;;;;;13.15;2.10;;;8.70;99.90;;;;;;5030599;28;20046;-76
2021/12/01 12:11:43;;;;;;;18.00;2.45;;;8.70;99.90;;;;;;5035392;28;20067;-73
2021/12/01 12:14:12;;;;;;;10.07;2.00;;;8.50;99.90;;;;;;5023735;28;20041;-75
2021/12/01 12:16:59;;;;;;;13.00;2.28;;;8.80;99.90;;;;;;5025146;28;20041;-74
2021/12/01 12:19:46;;;;;;;8.80;2.20;;;8.30;99.90;;;;;;5034991;28;20045;-72
2021/12/01 12:22:44;;;;;;;8.32;2.25;;;8.30;99.90;;;;;;5027050;28;20053;-73
2021/12/01 12:25:42;;;;;;;12.07;2.33;;;9.70;99.90;;;;;;5011144;28;20038;-75
2021/12/01 12:28:26;;;;;;;10.68;2.35;;;8.30;99.90;;;;;;5026331;28;20510;-75
2021/12/01 12:30:55;;;;;;;12.68;2.30;;;8.30;99.90;;;;;;5026191;28;20131;-73
2021/12/01 12:33:26;;;;;;;6.88;1.80;;;8.30;99.90;;;;;;5034785;28;20542;-77
2021/12/01 12:36:12;;;;;;;10.98;2.05;;;8.30;99.90;;;;;;5035387;28;20065;-76
2021/12/01 12:38:59;;;;;;;9.02;2.50;;;8.30;99.90;;;;;;5024720;28;20421;-79
2021/12/01 12:41:25;;;;;;;14.55;2.65;;;8.30;99.90;;;;;;5036613;28;20053;-73
2021/12/01 12:43:55;;;;;;;13.07;2.90;;;8.30;99.90;;;;;;5040075;28;20110;-78
2021/12/01 12:46:23;;;;;;;;;;;8.30;99.90;;;;;;5042946;28;20377;-74
2021/12/01 12:48:51;;;;;;;14.90;3.15;;;8.20;99.90;;;;;;5039245;28;20269;-76
2021/12/01 12:51:21;;;;;;;10.02;2.22;;;8.20;99.90;;;;;;5039494;28;20041;-80
2021/12/01 12:54:04;;;;;;;10.30;2.40;;;8.20;99.90;;;;;;5037890;28;20439;-76
2021/12/01 12:56:35;;;;;;;15.15;2.90;;;8.20;99.90;;;;;;5033959;28;20107;-78
2021/12/01 12:59:24;;;;;;;13.45;2.80;;;8.20;99.90;;;;;;5036186;28;20084;-78
2021/12/01 13:01:56;;;;;;;8.88;2.60;;;8.20;99.90;;;;;;5026308;28;20042;-79
2021/12/01 13:07:52;;;;;;;13.65;2.95;;;8.00;99.90;;;;;;5036594;28;20081;-78
2021/12/01 13:10:36;;;;;;;;;;;8.10;99.90;;;;;;5022317;28;20115;-74
2021/12/01 13:13:23;;;;;;;9.18;3.15;;;9.00;99.90;;;;;;5020804;28;19917;-76
2021/12/01 13:15:59;;;;;;;11.27;2.22;;;8.10;99.90;;;;;;5035179;28;20485;-74
2021/12/01 13:18:27;;;;;;;12.13;3.15;;;8.00;99.90;;;;;;5024820;28;20056;-78
2021/12/01 13:20:56;;;;;;;14.63;3.50;;;8.20;99.90;;;;;;5009196;28;20477;-74
2021/12/01 13:23:33;;;;;;;7.75;1.80;;;7.90;99.90;;;;;;5018986;28;20123;-77
2021/12/01 13:26:08;;;;;;;10.60;2.38;;;7.80;99.90;;;;;;5037868;28;20033;-73
2021/12/01 13:28:45;;;;;;;10.90;2.25;;;7.70;99.90;;;;;;5040417;28;20045;-73
2021/12/01 13:31:24;;;;;;;12.15;2.80;;;7.60;99.90;;;;;;5033562;28;20048;-73
2021/12/01 13:34:06;;;;;;;16.08;3.22;;;7.60;99.90;;;;;;5036947;28;20037;-73
2021/12/01 13:36:37;;;;;;;7.90;2.35;;;7.60;99.90;;;;;;5040122;28;20060;-74
2021/12/01 13:39:08;;;;;;;10.75;2.22;;;7.60;99.90;;;;;;5021596;28;20124;-76
2021/12/01 13:41:38;;;;;;;12.05;2.05;;;7.60;99.90;;;;;;5036409;28;20033;-73
2021/12/01 13:44:08;;;;;;;11.02;2.35;;;7.50;99.90;;;;;;5038602;28;20049;-74